createdAt,value
2022-12-01T00:01:03.409Z,12.23
2022-12-01T00:04:19.697Z,11.05
2022-12-01T00:07:31.434Z,10.57
2022-12-01T00:10:41.408Z,9.82
2022-12-01T00:13:50.303Z,9.68
2022-12-01T00:16:58.437Z,11.87
2022-12-01T00:20:07.718Z,11.40
2022-12-01T00:23:16.572Z,11.50
2022-12-01T00:26:25.375Z,11.38
2022-12-01T00:29:34.597Z,18.27
2022-12-01T00:32:43.368Z,14.83
2022-12-01T00:35:52.367Z,15.73
2022-12-01T00:39:01.572Z,14.32
2022-12-01T00:42:13.389Z,17.08
2022-12-01T00:45:23.767Z,15.85
2022-12-01T00:48:41.872Z,19.23
2022-12-01T00:51:53.741Z,16.80
2022-12-01T00:55:06.221Z,17.15
2022-12-01T00:58:16.368Z,15.57
2022-12-01T01:01:25.382Z,15.48
2022-12-01T01:04:38.389Z,14.57
2022-12-01T01:07:52.807Z,14.07
2022-12-01T01:11:07.442Z,15.05
2022-12-01T01:14:21.937Z,16.05
2022-12-01T01:17:31.370Z,14.43
2022-12-01T01:20:40.369Z,13.90
2022-12-01T01:23:50.304Z,13.73
2022-12-01T01:26:59.410Z,13.85
2022-12-01T01:30:08.200Z,13.45
2022-12-01T01:33:17.411Z,13.98
2022-12-01T01:36:26.408Z,14.10
2022-12-01T01:39:35.305Z,13.63
2022-12-01T01:42:44.303Z,13.63
2022-12-01T01:45:53.321Z,12.20
2022-12-01T01:49:11.025Z,12.70
2022-12-01T01:52:24.238Z,11.97
2022-12-01T01:55:40.529Z,12.05
2022-12-01T01:58:49.369Z,12.25
2022-12-01T02:02:14.208Z,11.20
2022-12-01T02:05:37.998Z,11.55
2022-12-01T02:08:54.414Z,12.53
2022-12-01T02:12:38.832Z,11.80
2022-12-01T02:16:15.959Z,11.00
2022-12-01T02:19:54.191Z,10.95
2022-12-01T02:23:40.372Z,11.93
2022-12-01T02:27:11.412Z,11.00
2022-12-01T02:30:50.111Z,10.15
2022-12-01T02:34:11.717Z,10.85
2022-12-01T02:37:42.102Z,10.27
2022-12-01T02:41:09.486Z,10.93
2022-12-01T02:44:34.516Z,10.50
2022-12-01T02:47:57.360Z,9.95
2022-12-01T02:51:20.300Z,10.77
2022-12-01T02:54:36.940Z,10.13
2022-12-01T02:57:51.374Z,10.63
2022-12-01T03:01:11.451Z,9.73
2022-12-01T03:04:56.750Z,10.55
2022-12-01T03:08:29.505Z,10.68
2022-12-01T03:12:10.802Z,10.45
2022-12-01T03:15:50.746Z,10.50
2022-12-01T03:19:19.366Z,10.60
2022-12-01T03:22:46.705Z,9.80
2022-12-01T03:25:58.366Z,10.25
2022-12-01T03:29:24.719Z,10.00
2022-12-01T03:32:48.176Z,9.30
2022-12-01T03:36:17.613Z,9.77
2022-12-01T03:39:37.363Z,10.48
2022-12-01T03:43:00.945Z,11.57
2022-12-01T03:46:31.640Z,9.90
2022-12-01T03:49:46.604Z,9.98
2022-12-01T03:53:25.997Z,10.50
2022-12-01T03:56:46.992Z,10.07
2022-12-01T04:00:04.401Z,10.30
2022-12-01T04:03:24.909Z,10.57
2022-12-01T04:06:34.391Z,11.57
2022-12-01T04:09:44.125Z,10.57
2022-12-01T04:12:52.683Z,11.75
2022-12-01T04:16:01.410Z,15.82
2022-12-01T04:19:10.367Z,11.30
2022-12-01T04:22:20.410Z,13.63
2022-12-01T04:25:35.343Z,13.80
2022-12-01T04:28:49.650Z,13.73
2022-12-01T04:32:03.826Z,16.65
2022-12-01T04:35:16.472Z,11.52
2022-12-01T04:38:30.215Z,11.10
2022-12-01T04:41:47.059Z,10.70
2022-12-01T04:45:00.884Z,10.48
2022-12-01T04:48:13.364Z,10.15
2022-12-01T04:51:28.068Z,10.85
2022-12-01T04:54:36.820Z,11.60
2022-12-01T04:57:50.574Z,15.10
2022-12-01T05:01:11.774Z,11.48
2022-12-01T05:04:20.712Z,10.57
2022-12-01T05:07:29.330Z,10.27
2022-12-01T05:10:38.327Z,14.13
2022-12-01T05:13:57.392Z,15.13
2022-12-01T05:17:12.113Z,11.88
2022-12-01T05:20:46.469Z,10.73
2022-12-01T05:23:56.301Z,10.57
2022-12-01T05:27:05.301Z,13.68
2022-12-01T05:30:15.791Z,10.70
2022-12-01T05:33:27.026Z,11.10
2022-12-01T05:36:35.919Z,12.23
2022-12-01T05:39:48.698Z,10.85
2022-12-01T05:43:02.776Z,13.10
2022-12-01T05:46:15.946Z,12.43
2022-12-01T05:49:28.574Z,17.00
2022-12-01T06:28:34.131Z,12.00
2022-12-01T06:35:43.296Z,77.18
2022-12-01T06:38:52.047Z,73.93
2022-12-01T06:42:05.395Z,54.13
2022-12-01T06:45:24.412Z,29.73
2022-12-01T06:48:33.843Z,25.50
2022-12-01T06:59:03.949Z,12.07
2022-12-01T07:09:04.402Z,11.82
2022-12-01T07:12:26.661Z,13.77
2022-12-01T07:15:45.042Z,11.40
2022-12-01T07:19:04.388Z,11.17
2022-12-01T07:22:15.121Z,15.05
2022-12-01T07:25:44.368Z,14.68
2022-12-01T07:28:57.655Z,16.50
2022-12-01T07:32:06.647Z,13.55
2022-12-01T07:35:38.709Z,15.57
2022-12-01T07:39:26.785Z,14.82
2022-12-01T07:42:55.766Z,14.25
2022-12-01T07:46:32.376Z,13.32
2022-12-01T07:49:52.308Z,13.85
2022-12-01T07:53:01.652Z,13.10
2022-12-01T07:56:19.763Z,13.88
2022-12-01T08:03:21.809Z,13.35
2022-12-01T08:06:40.657Z,13.35
2022-12-01T08:13:45.394Z,13.00
2022-12-01T08:17:34.231Z,12.73
2022-12-01T08:24:32.491Z,12.93
2022-12-01T08:27:47.600Z,12.70
2022-12-01T08:30:59.642Z,13.23
2022-12-01T08:34:23.556Z,13.43
2022-12-01T08:41:20.635Z,20.85
2022-12-01T08:48:19.563Z,12.15
2022-12-01T08:51:28.385Z,12.10
2022-12-01T08:54:37.520Z,15.02
2022-12-01T08:57:55.218Z,13.25
2022-12-01T09:01:16.732Z,13.60
2022-12-01T09:04:35.033Z,13.00
2022-12-01T09:08:30.438Z,13.57
2022-12-01T09:12:30.245Z,13.45
2022-12-01T09:34:54.263Z,15.10
2022-12-01T09:38:02.678Z,15.67
2022-12-01T09:41:52.673Z,15.77
2022-12-01T09:52:43.496Z,14.20
2022-12-01T09:59:27.227Z,14.65
2022-12-01T10:03:02.161Z,13.82
2022-12-01T10:06:27.784Z,15.40
2022-12-01T10:10:14.749Z,15.75
2022-12-01T10:13:28.189Z,18.13
2022-12-01T10:16:52.687Z,16.20
2022-12-01T10:20:31.184Z,15.20
2022-12-01T10:24:09.973Z,16.10
2022-12-01T10:28:04.538Z,15.18
2022-12-01T10:35:04.486Z,13.55
2022-12-01T10:38:27.412Z,16.10
2022-12-01T10:41:43.642Z,16.75
2022-12-01T10:45:01.108Z,15.85
2022-12-01T10:48:23.721Z,15.60
2022-12-01T10:51:31.839Z,14.32
2022-12-01T10:54:42.329Z,13.98
2022-12-01T11:09:26.173Z,14.48
2022-12-01T11:12:43.800Z,13.00
2022-12-01T11:19:40.667Z,12.52
2022-12-01T11:26:33.143Z,14.25
2022-12-01T11:29:42.900Z,14.40
2022-12-01T11:33:10.681Z,13.27
2022-12-01T11:36:57.550Z,13.00
2022-12-01T11:41:14.984Z,13.53
2022-12-01T11:44:50.492Z,12.98
2022-12-01T11:48:35.820Z,14.35
2022-12-01T12:01:22.426Z,11.87
2022-12-01T12:15:12.629Z,13.10
2022-12-01T12:23:56.015Z,12.80
2022-12-01T12:32:23.417Z,16.02
2022-12-01T13:01:01.390Z,15.70
2022-12-01T13:12:19.277Z,13.57
2022-12-01T13:15:33.575Z,12.47
2022-12-01T13:19:35.812Z,13.10
2022-12-01T13:22:59.019Z,12.60
2022-12-01T13:26:13.336Z,13.95
2022-12-01T13:29:30.153Z,14.20
2022-12-01T13:32:46.668Z,16.63
2022-12-01T13:36:44.741Z,13.27
2022-12-01T13:39:52.037Z,12.90
2022-12-01T13:43:44.391Z,26.08
2022-12-01T13:50:54.324Z,21.00
2022-12-01T13:58:27.286Z,13.70
2022-12-01T14:06:45.653Z,15.10
2022-12-01T14:18:40.153Z,13.20
2022-12-01T14:21:52.669Z,12.73
2022-12-01T14:25:23.822Z,13.60
2022-12-01T14:29:14.837Z,13.63
2022-12-01T14:35:54.359Z,18.05
2022-12-01T14:43:17.802Z,17.90
2022-12-01T14:46:29.529Z,15.87
2022-12-01T14:49:55.440Z,15.63
2022-12-01T14:53:45.014Z,20.60
2022-12-01T15:00:58.267Z,18.37
2022-12-01T15:04:13.652Z,17.83
2022-12-01T15:07:24.168Z,18.85
2022-12-01T15:10:37.222Z,18.30
2022-12-01T15:13:58.445Z,17.20
2022-12-01T15:17:09.319Z,18.10
2022-12-01T15:20:44.893Z,17.67
2022-12-01T15:24:04.784Z,21.67
2022-12-01T15:27:38.259Z,24.05
2022-12-01T15:30:50.116Z,23.40
2022-12-01T15:33:58.685Z,28.23
2022-12-01T15:37:16.848Z,30.37
2022-12-01T15:44:07.367Z,25.95
2022-12-01T15:47:41.720Z,22.92
2022-12-01T15:51:14.992Z,21.73
2022-12-01T15:54:34.866Z,27.70
2022-12-01T15:57:47.409Z,28.83
2022-12-01T16:01:26.539Z,27.85
2022-12-01T16:04:45.266Z,26.52
2022-12-01T16:11:25.576Z,21.10
2022-12-01T16:14:34.367Z,23.63
2022-12-01T16:17:58.159Z,22.67
2022-12-01T16:21:13.263Z,23.40
2022-12-01T16:24:39.251Z,23.13
2022-12-01T16:28:02.991Z,24.00
2022-12-01T16:31:22.642Z,24.25
2022-12-01T16:34:56.763Z,26.15
2022-12-01T16:38:01.368Z,24.48
2022-12-01T16:41:23.650Z,24.90
2022-12-01T16:44:40.260Z,25.57
2022-12-01T16:47:50.097Z,26.00
2022-12-01T16:50:59.095Z,26.02
2022-12-01T16:54:07.988Z,28.48
2022-12-01T16:57:17.300Z,26.50
2022-12-01T17:00:30.993Z,33.33
2022-12-01T17:03:45.328Z,36.97
2022-12-01T17:06:59.184Z,39.15
2022-12-01T17:10:13.364Z,36.70
2022-12-01T17:13:23.461Z,37.50
2022-12-01T17:16:35.866Z,32.13
2022-12-01T17:19:53.939Z,31.13
2022-12-01T17:23:09.875Z,28.35
2022-12-01T17:26:20.310Z,26.13
2022-12-01T17:29:29.302Z,25.87
2022-12-01T17:32:38.714Z,26.17
2022-12-01T17:35:55.664Z,28.00
2022-12-01T17:39:14.994Z,26.42
2022-12-01T17:42:26.413Z,24.83
2022-12-01T17:45:35.309Z,24.60
2022-12-01T17:48:54.129Z,22.83
2022-12-01T17:52:11.760Z,22.30
2022-12-01T17:55:22.373Z,21.90
2022-12-01T17:58:31.372Z,21.42
2022-12-01T18:01:48.506Z,22.27
2022-12-01T18:05:01.479Z,19.00
2022-12-01T18:08:17.977Z,19.08
2022-12-01T18:11:28.270Z,16.15
2022-12-01T18:14:37.374Z,13.65
2022-12-01T18:17:46.478Z,14.40
2022-12-01T18:20:55.375Z,13.40
2022-12-01T18:24:05.753Z,14.38
2022-12-01T18:27:14.723Z,14.43
2022-12-01T18:30:23.414Z,14.65
2022-12-01T18:33:43.087Z,13.87
2022-12-01T18:36:58.830Z,15.37
2022-12-01T18:40:10.791Z,14.40
2022-12-01T18:43:19.584Z,15.63
2022-12-01T18:46:28.428Z,15.85
2022-12-01T18:49:37.373Z,17.63
2022-12-01T18:52:47.311Z,20.07
2022-12-01T18:56:17.322Z,21.35
2022-12-01T18:59:34.480Z,19.75
2022-12-01T19:02:51.765Z,18.65
2022-12-01T19:06:04.374Z,17.63
2022-12-01T19:09:14.309Z,16.50
2022-12-01T19:12:24.113Z,17.10
2022-12-01T19:15:43.375Z,15.95
2022-12-01T19:19:01.278Z,14.38
2022-12-01T19:22:10.384Z,15.03
2022-12-01T19:25:19.376Z,14.93
2022-12-01T19:28:28.790Z,14.40
2022-12-01T19:31:37.482Z,15.30
2022-12-01T19:34:46.384Z,14.93
2022-12-01T19:37:55.375Z,16.00
2022-12-01T19:41:06.095Z,17.73
2022-12-01T19:44:14.715Z,18.55
2022-12-01T19:47:26.474Z,17.70
2022-12-01T19:50:43.920Z,16.90
2022-12-01T19:53:58.256Z,15.67
2022-12-01T19:57:10.371Z,16.17
2022-12-01T20:00:19.373Z,17.13
2022-12-01T20:03:28.783Z,16.35
2022-12-01T20:06:44.176Z,21.50
2022-12-01T20:10:00.464Z,17.27
2022-12-01T20:13:16.262Z,16.17
2022-12-01T20:16:26.362Z,16.20
2022-12-01T20:19:35.305Z,17.83
2022-12-01T20:22:44.410Z,17.17
2022-12-01T20:25:54.071Z,22.70
2022-12-01T20:29:17.296Z,25.37
2022-12-01T20:32:31.264Z,35.47
2022-12-01T20:35:40.368Z,30.38
2022-12-01T20:38:51.132Z,28.80
2022-12-01T20:42:01.623Z,22.77
2022-12-01T20:45:08.716Z,15.90
2022-12-01T20:48:17.718Z,16.15
2022-12-01T20:51:39.378Z,16.95
2022-12-01T20:54:55.120Z,24.85
2022-12-01T20:58:04.368Z,29.23
2022-12-01T21:01:23.028Z,25.70
2022-12-01T21:04:38.511Z,23.90
2022-12-01T21:07:52.307Z,26.38
2022-12-01T21:11:01.368Z,30.42
2022-12-01T21:14:21.583Z,32.63
2022-12-01T21:17:49.904Z,31.77
2022-12-01T21:21:24.751Z,31.50
2022-12-01T21:24:43.741Z,28.40
2022-12-01T21:27:57.020Z,26.38
2022-12-01T21:31:19.410Z,28.13
2022-12-01T21:34:29.306Z,32.33
2022-12-01T21:37:38.408Z,34.55
2022-12-01T21:40:47.719Z,30.95
2022-12-01T21:43:57.847Z,29.15
2022-12-01T21:47:22.100Z,32.23
2022-12-01T21:50:34.369Z,45.57
2022-12-01T21:53:43.371Z,35.50
2022-12-01T21:56:52.370Z,43.58
2022-12-01T22:00:22.368Z,34.95
2022-12-01T22:03:35.286Z,37.77
2022-12-01T22:06:53.409Z,48.57
2022-12-01T22:10:09.350Z,42.28
2022-12-01T22:13:19.370Z,40.60
2022-12-01T22:16:44.240Z,36.95
2022-12-01T22:20:19.370Z,39.93
2022-12-01T22:23:37.928Z,39.03
2022-12-01T22:26:55.667Z,38.80
2022-12-01T22:30:22.897Z,39.70
2022-12-01T22:33:37.160Z,33.40
2022-12-01T22:36:46.374Z,36.43
2022-12-01T22:40:00.112Z,31.63
2022-12-01T22:43:36.014Z,35.67
2022-12-01T22:46:51.103Z,36.88
2022-12-01T22:50:04.263Z,36.15
2022-12-01T22:53:32.114Z,35.77
2022-12-01T22:57:01.037Z,36.67
2022-12-01T23:00:27.856Z,45.45
2022-12-01T23:03:41.248Z,40.53
2022-12-01T23:07:14.405Z,42.95
2022-12-01T23:10:35.177Z,41.20
2022-12-01T23:13:51.918Z,36.47
2022-12-01T23:17:22.371Z,34.78
2022-12-01T23:20:43.471Z,38.42
2022-12-01T23:23:57.521Z,38.28
2022-12-01T23:27:10.369Z,37.40
2022-12-01T23:30:19.370Z,35.37
2022-12-01T23:33:29.405Z,37.88
2022-12-01T23:36:38.418Z,34.97
2022-12-01T23:39:57.745Z,32.35
2022-12-01T23:43:37.369Z,34.33
2022-12-01T23:46:46.410Z,36.30
2022-12-01T23:50:09.775Z,36.38
2022-12-01T23:53:39.663Z,33.45
2022-12-01T23:57:04.913Z,32.50
